Time;durP1;ratioP1;P1;durP2;ratioP2;P2;SDS_P1;SDS_P2;PMS_P1;PMS_P2;Temp;Humidity;BMP_temperature;BMP_pressure;BME280_temperature;BME280_humidity;BME280_pressure;Samples;Min_cycle;Max_cycle;Signal;HPM_P1;HPM_P2
2024/03/19 00:02:02;;;;;;;2.22;1.90;;;22.80;42.50;;;;;;10319794;28;20126;-58
2024/03/19 00:07:05;;;;;;;2.00;1.80;;;22.70;42.40;;;;;;10317010;28;20081;-55
2024/03/19 00:12:07;;;;;;;2.95;2.00;;;22.60;42.40;;;;;;10317008;28;20052;-59
2024/03/19 00:17:09;;;;;;;2.78;1.70;;;22.60;42.40;;;;;;10314281;28;20126;-56
2024/03/19 00:22:11;;;;;;;2.28;1.77;;;22.40;42.50;;;;;;10310415;28;20039;-55
2024/03/19 00:27:19;;;;;;;1.70;1.60;;;22.30;42.90;;;;;;10316111;28;20085;-57
2024/03/19 00:32:21;;;;;;;2.22;1.73;;;22.30;42.60;;;;;;10317134;28;20038;-54
2024/03/19 00:37:24;;;;;;;2.17;1.60;;;22.40;42.30;;;;;;10320594;28;20042;-56
2024/03/19 00:42:25;;;;;;;1.80;1.70;;;22.20;42.60;;;;;;10346500;28;20043;-57
2024/03/19 00:47:27;;;;;;;1.85;1.70;;;22.00;42.80;;;;;;10323748;28;20184;-58
2024/03/19 00:52:30;;;;;;;2.25;1.60;;;22.00;42.80;;;;;;10309836;28;20129;-58
2024/03/19 00:57:32;;;;;;;1.73;1.58;;;22.00;42.60;;;;;;10308097;28;20038;-56
2024/03/19 01:02:34;;;;;;;2.00;1.50;;;22.00;42.50;;;;;;10315007;28;20043;-59
2024/03/19 01:07:38;;;;;;;1.73;1.50;;;22.10;42.30;;;;;;10319702;28;20527;-55
2024/03/19 01:12:40;;;;;;;1.85;1.40;;;21.90;42.50;;;;;;10319489;28;20769;-56
2024/03/19 01:17:41;;;;;;;1.60;1.50;;;21.90;42.40;;;;;;10313443;28;20050;-57
2024/03/19 01:22:44;;;;;;;1.67;1.58;;;21.80;42.50;;;;;;10312274;28;20376;-55
2024/03/19 01:27:46;;;;;;;1.88;1.35;;;21.80;42.40;;;;;;10311649;28;20145;-59
2024/03/19 01:32:48;;;;;;;1.40;1.30;;;21.90;42.40;;;;;;10306846;28;20050;-56
2024/03/19 01:37:50;;;;;;;1.88;1.10;;;21.90;42.00;;;;;;10315736;28;20092;-56
2024/03/19 01:42:52;;;;;;;1.40;1.30;;;21.90;42.00;;;;;;10309958;28;20265;-57
2024/03/19 01:47:54;;;;;;;1.73;1.20;;;21.90;42.20;;;;;;10320546;28;20054;-56
2024/03/19 01:52:56;;;;;;;1.83;1.30;;;21.70;42.20;;;;;;10318933;28;20038;-57
2024/03/19 01:57:59;;;;;;;2.15;1.33;;;21.60;42.40;;;;;;10314569;28;20049;-58
2024/03/19 02:03:01;;;;;;;1.98;1.30;;;21.70;42.30;;;;;;10311907;28;20520;-59
2024/03/19 02:08:05;;;;;;;1.23;1.13;;;21.50;42.50;;;;;;10315733;28;20515;-56
2024/03/19 02:13:06;;;;;;;1.30;1.20;;;21.30;42.90;;;;;;10312905;28;20142;-58
2024/03/19 02:18:08;;;;;;;1.20;1.10;;;21.10;43.40;;;;;;10326302;28;20130;-57
2024/03/19 02:23:11;;;;;;;1.63;1.20;;;21.00;43.30;;;;;;10325104;28;20046;-57
2024/03/19 02:28:13;;;;;;;2.55;1.20;;;21.00;43.70;;;;;;10320224;28;20126;-56
2024/03/19 02:33:14;;;;;;;1.40;1.20;;;20.80;43.90;;;;;;10322144;28;20050;-58
2024/03/19 02:38:18;;;;;;;1.20;1.10;;;20.70;44.00;;;;;;10316868;28;20039;-56
2024/03/19 02:43:20;;;;;;;1.33;1.00;;;20.80;43.90;;;;;;10319607;28;20492;-59
2024/03/19 02:48:22;;;;;;;1.10;0.98;;;20.70;44.20;;;;;;10315873;28;20042;-58
2024/03/19 02:53:26;;;;;;;2.08;1.17;;;20.60;44.20;;;;;;10321514;28;20526;-57
2024/03/19 02:58:27;;;;;;;1.00;0.85;;;20.60;44.20;;;;;;10325881;28;20559;-55
2024/03/19 03:03:29;;;;;;;1.38;1.10;;;20.60;44.20;;;;;;10322177;28;20132;-56
2024/03/19 03:08:32;;;;;;;1.55;1.40;;;20.60;44.30;;;;;;10323881;28;20089;-55
2024/03/19 03:13:34;;;;;;;1.48;1.38;;;20.40;44.30;;;;;;10318604;28;20121;-56
2024/03/19 03:18:35;;;;;;;1.65;1.23;;;20.30;44.50;;;;;;10322245;28;20042;-57
2024/03/19 03:23:39;;;;;;;1.08;0.98;;;20.40;44.20;;;;;;10315160;28;20050;-58
2024/03/19 03:28:41;;;;;;;1.33;1.00;;;20.40;44.30;;;;;;10359331;28;20054;-54
2024/03/19 03:33:42;;;;;;;1.17;1.00;;;20.20;44.70;;;;;;10315107;28;20133;-57
2024/03/19 03:38:45;;;;;;;1.65;1.25;;;20.20;44.60;;;;;;10317397;28;20137;-57
2024/03/19 03:43:47;;;;;;;1.10;1.00;;;20.30;44.30;;;;;;10357886;28;20572;-56
2024/03/19 03:48:48;;;;;;;1.63;1.23;;;20.10;44.60;;;;;;10360358;28;20046;-58
2024/03/19 03:53:51;;;;;;;1.67;1.15;;;20.00;45.00;;;;;;10353492;28;20074;-54
2024/03/19 03:58:53;;;;;;;1.83;1.25;;;19.90;45.00;;;;;;10318288;28;20050;-57
2024/03/19 04:03:55;;;;;;;1.15;0.90;;;20.20;44.40;;;;;;10316611;28;20046;-58
2024/03/19 04:08:57;;;;;;;1.30;1.20;;;20.10;44.50;;;;;;10321585;28;20420;-55
2024/03/19 04:13:59;;;;;;;1.40;1.00;;;19.80;45.40;;;;;;10316559;28;20054;-59
2024/03/19 04:19:01;;;;;;;1.08;0.95;;;19.90;45.40;;;;;;10361625;28;20141;-57
2024/03/19 04:24:04;;;;;;;1.50;0.93;;;20.90;43.70;;;;;;10358724;28;20050;-57
2024/03/19 04:29:06;;;;;;;1.20;1.10;;;21.50;42.30;;;;;;10356915;28;20051;-59
2024/03/19 04:34:09;;;;;;;1.10;1.00;;;21.70;41.80;;;;;;10321072;28;20057;-56
2024/03/19 04:39:12;;;;;;;1.17;1.08;;;21.80;41.50;;;;;;10312400;28;20066;-59
2024/03/19 04:44:14;;;;;;;1.40;0.95;;;21.90;41.10;;;;;;10318407;28;20057;-54
2024/03/19 04:49:16;;;;;;;1.88;1.10;;;22.00;40.90;;;;;;10311773;28;20062;-58
2024/03/19 04:54:18;;;;;;;4.53;1.10;;;22.10;40.70;;;;;;10304459;28;20053;-57
2024/03/19 04:59:20;;;;;;;1.17;0.90;;;22.10;40.60;;;;;;10305772;28;20054;-58
2024/03/19 05:04:22;;;;;;;1.50;1.00;;;22.00;40.60;;;;;;10310970;28;20061;-55
2024/03/19 05:09:25;;;;;;;1.40;1.13;;;22.00;40.60;;;;;;10315540;28;20413;-55
2024/03/19 05:14:26;;;;;;;1.13;0.95;;;22.10;40.60;;;;;;10312750;28;20512;-55
2024/03/19 05:19:28;;;;;;;1.55;0.90;;;22.10;40.50;;;;;;10310035;28;20520;-58
2024/03/19 05:24:31;;;;;;;0.98;0.80;;;22.20;40.50;;;;;;10307458;28;20537;-57
2024/03/19 05:29:33;;;;;;;1.63;1.10;;;22.20;40.60;;;;;;10308559;28;20085;-58
2024/03/19 05:34:34;;;;;;;2.20;0.90;;;22.20;40.50;;;;;;10304486;28;20085;-57
2024/03/19 05:39:37;;;;;;;1.88;1.00;;;22.20;40.80;;;;;;10311240;28;20145;-55
2024/03/19 05:44:39;;;;;;;2.00;1.00;;;22.30;40.80;;;;;;10312062;28;20143;-58
2024/03/19 05:49:40;;;;;;;0.90;0.85;;;22.30;40.90;;;;;;10312452;28;20049;-55
2024/03/19 05:54:43;;;;;;;1.15;0.90;;;22.30;41.00;;;;;;10317538;28;20049;-57
2024/03/19 05:59:45;;;;;;;1.60;1.10;;;22.40;40.80;;;;;;10324445;28;20045;-57
2024/03/19 06:04:46;;;;;;;5.47;1.33;;;22.40;41.50;;;;;;10309882;28;20060;-59
2024/03/19 06:09:49;;;;;;;3.13;0.70;;;22.30;42.00;;;;;;10326408;28;20093;-59
2024/03/19 06:14:51;;;;;;;5.03;1.00;;;22.30;42.40;;;;;;10324419;28;20130;-58
2024/03/19 06:19:53;;;;;;;4.20;1.00;;;22.40;42.60;;;;;;10323508;28;20133;-57
2024/03/19 06:24:56;;;;;;;2.60;0.80;;;22.40;42.80;;;;;;10322766;28;20053;-59
2024/03/19 06:29:57;;;;;;;0.93;0.80;;;22.60;41.90;;;;;;10328654;28;20051;-55
2024/03/19 06:34:59;;;;;;;16.30;2.72;;;22.60;41.90;;;;;;10329092;28;20587;-57
2024/03/19 06:40:02;;;;;;;27.73;4.55;;;22.60;42.90;;;;;;10326059;28;20049;-57
2024/03/19 06:45:04;;;;;;;14.35;5.28;;;22.60;44.20;;;;;;10324780;28;20479;-57
2024/03/19 06:50:07;;;;;;;22.67;4.78;;;22.50;45.00;;;;;;10326684;28;20476;-57
2024/03/19 06:55:10;;;;;;;13.15;3.83;;;22.60;45.60;;;;;;10327276;28;20057;-56
2024/03/19 07:00:14;;;;;;;16.83;3.92;;;22.60;46.30;;;;;;10321306;28;20621;-57
2024/03/19 07:05:16;;;;;;;25.05;3.80;;;22.20;46.50;;;;;;10324281;28;20057;-56
2024/03/19 07:10:19;;;;;;;14.77;3.50;;;22.40;46.40;;;;;;10326548;28;20046;-59
2024/03/19 07:15:21;;;;;;;14.07;2.70;;;22.40;46.20;;;;;;10322177;28;20130;-59
2024/03/19 07:20:24;;;;;;;10.25;2.55;;;22.20;46.80;;;;;;10326027;28;20129;-57
2024/03/19 07:25:27;;;;;;;9.57;2.80;;;22.10;45.50;;;;;;10317390;28;20074;-58
2024/03/19 07:30:29;;;;;;;13.13;2.45;;;22.30;45.10;;;;;;10317810;28;20056;-56
2024/03/19 07:35:31;;;;;;;5.95;2.30;;;22.20;45.30;;;;;;10315828;28;20052;-55
2024/03/19 07:40:34;;;;;;;7.15;2.50;;;22.30;45.10;;;;;;10333283;28;20693;-58
2024/03/19 07:45:36;;;;;;;5.15;2.10;;;22.30;45.10;;;;;;10316574;28;20097;-59
2024/03/19 07:50:38;;;;;;;6.30;2.00;;;22.30;45.00;;;;;;10335025;28;20149;-57
2024/03/19 07:55:41;;;;;;;7.55;2.25;;;22.20;45.10;;;;;;10362438;28;20089;-57
2024/03/19 08:00:43;;;;;;;8.73;2.78;;;22.30;45.00;;;;;;10344628;28;20057;-58
2024/03/19 08:05:45;;;;;;;6.80;2.20;;;22.30;44.80;;;;;;10324539;28;20136;-54
2024/03/19 08:10:48;;;;;;;7.80;2.20;;;22.30;44.80;;;;;;10325702;28;20455;-57
2024/03/19 08:15:50;;;;;;;4.05;2.05;;;22.30;44.70;;;;;;10321376;28;20050;-54
2024/03/19 08:20:52;;;;;;;5.10;1.70;;;22.30;44.60;;;;;;10316201;28;20097;-56
2024/03/19 08:25:56;;;;;;;5.82;2.13;;;22.30;44.80;;;;;;10308480;28;20523;-60
2024/03/19 08:30:57;;;;;;;7.60;2.33;;;22.30;44.90;;;;;;10316295;28;20468;-56
2024/03/19 08:35:59;;;;;;;4.63;1.85;;;22.30;44.70;;;;;;10318086;28;20046;-59
2024/03/19 08:41:02;;;;;;;4.20;1.85;;;22.30;44.60;;;;;;10334726;28;20042;-58
2024/03/19 08:46:04;;;;;;;6.65;2.03;;;22.40;44.50;;;;;;10338028;28;20065;-57
2024/03/19 08:51:06;;;;;;;3.83;1.60;;;22.30;44.60;;;;;;10317398;28;20047;-58
2024/03/19 08:56:09;;;;;;;5.40;1.85;;;22.30;44.60;;;;;;10319099;28;20046;-55
2024/03/19 09:01:13;;;;;;;4.43;1.83;;;22.40;44.30;;;;;;10318722;28;20413;-57
2024/03/19 09:06:14;;;;;;;4.00;1.80;;;22.40;44.40;;;;;;10335005;28;20062;-54
2024/03/19 09:11:17;;;;;;;3.63;1.85;;;22.40;44.30;;;;;;10337012;28;20137;-55
2024/03/19 09:16:19;;;;;;;2.78;1.50;;;22.50;44.60;;;;;;10315039;28;20050;-56
2024/03/19 09:21:21;;;;;;;3.95;1.73;;;22.50;44.30;;;;;;10317415;28;20541;-58
2024/03/19 09:26:24;;;;;;;3.22;1.65;;;22.50;44.20;;;;;;10320148;28;20125;-58
2024/03/19 09:31:26;;;;;;;4.47;1.88;;;22.50;44.20;;;;;;10340731;28;20052;-57
2024/03/19 09:36:28;;;;;;;2.95;1.20;;;22.60;44.20;;;;;;10359767;28;20504;-59
2024/03/19 09:41:31;;;;;;;5.30;1.75;;;22.60;44.10;;;;;;10356833;28;20979;-57
2024/03/19 09:46:33;;;;;;;4.32;1.83;;;22.70;43.90;;;;;;10328494;28;20049;-58
2024/03/19 09:51:38;;;;;;;2.88;1.40;;;22.70;43.90;;;;;;10316769;28;20050;-54
2024/03/19 09:56:41;;;;;;;2.13;1.23;;;22.70;43.90;;;;;;10313937;28;20133;-53
2024/03/19 10:01:43;;;;;;;2.25;1.48;;;22.70;43.90;;;;;;10319877;28;20093;-58
2024/03/19 10:06:45;;;;;;;2.65;1.52;;;22.70;43.90;;;;;;10315419;28;20610;-55
2024/03/19 10:11:48;;;;;;;1.95;1.20;;;22.70;43.90;;;;;;10320476;28;20073;-58
2024/03/19 10:16:51;;;;;;;2.58;1.45;;;22.80;43.70;;;;;;10344715;28;20042;-57
2024/03/19 10:21:53;;;;;;;2.83;1.40;;;22.80;43.80;;;;;;10333517;28;20065;-55
2024/03/19 10:26:56;;;;;;;2.35;1.40;;;22.90;43.60;;;;;;10317137;28;20137;-59
2024/03/19 10:31:58;;;;;;;3.90;1.40;;;22.90;43.70;;;;;;10341261;28;20141;-59
2024/03/19 10:37:00;;;;;;;3.38;1.52;;;22.90;43.70;;;;;;10358996;28;20133;-52
2024/03/19 10:42:04;;;;;;;2.55;1.27;;;22.90;43.70;;;;;;10337420;28;20149;-56
2024/03/19 10:47:06;;;;;;;2.25;1.40;;;22.90;43.70;;;;;;10353347;28;20053;-54
2024/03/19 10:52:11;;;;;;;2.95;1.30;;;22.90;43.70;;;;;;10335387;28;20047;-56
2024/03/19 10:57:15;;;;;;;3.17;1.35;;;22.90;43.70;;;;;;10320042;28;20047;-56
2024/03/19 11:02:17;;;;;;;2.50;1.60;;;23.00;43.50;;;;;;10322243;28;20129;-56
2024/03/19 11:07:25;;;;;;;2.45;1.30;;;22.90;43.80;;;;;;10318539;28;20046;-57
2024/03/19 11:12:28;;;;;;;2.08;1.20;;;22.90;43.70;;;;;;10320470;28;20038;-54
2024/03/19 11:17:29;;;;;;;2.40;1.20;;;22.80;43.80;;;;;;10319952;28;20668;-57
2024/03/19 11:22:31;;;;;;;2.30;1.20;;;22.90;43.90;;;;;;10320864;28;20039;-56
2024/03/19 11:27:35;;;;;;;1.95;1.40;;;22.80;43.80;;;;;;10319945;28;20130;-57
2024/03/19 11:32:36;;;;;;;2.05;1.27;;;22.80;44.00;;;;;;10356068;28;20069;-54
2024/03/19 11:37:38;;;;;;;4.03;1.70;;;22.80;44.00;;;;;;10357881;28;20141;-59
2024/03/19 11:42:41;;;;;;;3.03;1.27;;;22.60;44.10;;;;;;10325588;28;20101;-56
2024/03/19 11:47:44;;;;;;;3.33;1.38;;;22.80;43.80;;;;;;10318773;28;20043;-59
2024/03/19 11:52:47;;;;;;;1.63;1.17;;;22.80;43.90;;;;;;10317750;28;20038;-54
2024/03/19 11:57:50;;;;;;;2.45;1.17;;;22.90;43.70;;;;;;10318663;28;20078;-59
2024/03/19 12:02:52;;;;;;;1.45;1.10;;;22.90;43.70;;;;;;10321140;28;20513;-55
2024/03/19 12:07:54;;;;;;;2.75;1.20;;;22.80;43.90;;;;;;10324285;28;20042;-55
2024/03/19 12:12:57;;;;;;;1.65;1.20;;;22.80;43.90;;;;;;10316595;28;20042;-58
2024/03/19 12:17:58;;;;;;;1.98;1.27;;;22.70;43.90;;;;;;10322834;28;20046;-58
2024/03/19 12:23:01;;;;;;;2.30;1.40;;;22.80;43.80;;;;;;10318843;28;20089;-57
2024/03/19 12:28:05;;;;;;;3.80;1.40;;;22.90;43.50;;;;;;10323524;28;20138;-54
2024/03/19 12:33:20;;;;;;;1.67;1.20;;;22.90;43.80;;;;;;10321102;28;20149;-58
2024/03/19 12:38:21;;;;;;;2.70;1.30;;;22.60;44.30;;;;;;10315247;28;20477;-55
2024/03/19 12:43:24;;;;;;;3.38;1.30;;;22.70;44.10;;;;;;10321933;28;20133;-58
2024/03/19 12:48:26;;;;;;;3.72;1.40;;;22.80;44.10;;;;;;10319812;28;20046;-57
2024/03/19 12:53:28;;;;;;;2.25;1.33;;;22.80;44.00;;;;;;10318180;28;20034;-58
2024/03/19 12:58:31;;;;;;;3.22;1.10;;;22.80;44.00;;;;;;10310996;28;20047;-56
2024/03/19 13:03:33;;;;;;;2.20;1.10;;;22.80;44.00;;;;;;10312797;28;20408;-53
2024/03/19 13:08:34;;;;;;;2.08;1.30;;;22.90;44.10;;;;;;10315784;28;20090;-57
2024/03/19 13:13:37;;;;;;;8.77;2.92;;;23.00;44.00;;;;;;10314380;28;20585;-57
2024/03/19 13:18:39;;;;;;;6.63;2.85;;;22.70;45.10;;;;;;10321782;28;20141;-55
2024/03/19 13:23:40;;;;;;;8.65;3.33;;;22.70;45.50;;;;;;10319766;28;20141;-60
2024/03/19 13:28:43;;;;;;;9.77;2.80;;;22.50;46.10;;;;;;10318967;28;20069;-55
2024/03/19 13:33:45;;;;;;;6.72;2.80;;;22.70;46.50;;;;;;10313452;28;20057;-57
2024/03/19 13:38:48;;;;;;;8.13;2.35;;;22.70;46.30;;;;;;10313641;28;20141;-57
2024/03/19 13:43:51;;;;;;;6.03;2.30;;;22.70;46.20;;;;;;10315000;28;20050;-58
2024/03/19 13:48:53;;;;;;;5.60;2.00;;;22.80;46.20;;;;;;10312135;28;20047;-55
2024/03/19 13:53:54;;;;;;;4.47;2.50;;;22.80;46.20;;;;;;10310460;28;20166;-55
2024/03/19 13:58:58;;;;;;;7.90;2.60;;;22.80;46.20;;;;;;10308798;28;20142;-58
2024/03/19 14:03:59;;;;;;;5.75;2.25;;;22.80;46.20;;;;;;10307876;28;20085;-56
2024/03/19 14:09:03;;;;;;;5.47;2.42;;;22.80;46.00;;;;;;10308419;28;20085;-58
2024/03/19 14:14:07;;;;;;;6.38;2.03;;;22.80;46.10;;;;;;10314811;28;21322;-57
2024/03/19 14:19:13;;;;;;;4.80;2.08;;;22.80;45.90;;;;;;10321188;28;20125;-58
2024/03/19 14:24:15;;;;;;;6.78;2.10;;;22.70;45.90;;;;;;10320337;28;20061;-59
2024/03/19 14:29:18;;;;;;;6.50;2.08;;;22.80;45.70;;;;;;10325654;28;20053;-58
2024/03/19 14:34:20;;;;;;;9.82;2.35;;;22.80;45.80;;;;;;10326771;28;20476;-56
2024/03/19 14:39:23;;;;;;;12.45;2.88;;;22.80;45.60;;;;;;10361817;28;20053;-56
2024/03/19 14:44:26;;;;;;;7.60;2.33;;;22.80;45.80;;;;;;10359898;28;20046;-59
2024/03/19 14:49:28;;;;;;;5.05;2.30;;;22.70;45.80;;;;;;10357838;28;20524;-56
2024/03/19 14:54:29;;;;;;;14.07;2.40;;;22.60;45.80;;;;;;10323575;28;20464;-52
2024/03/19 14:59:35;;;;;;;5.32;2.33;;;22.80;46.20;;;;;;10324024;28;20042;-54
2024/03/19 15:04:37;;;;;;;7.07;2.30;;;23.10;45.80;;;;;;10322596;28;20507;-56
2024/03/19 15:09:39;;;;;;;5.80;2.10;;;23.10;45.70;;;;;;10316682;28;20073;-57
2024/03/19 15:14:41;;;;;;;5.57;2.08;;;22.80;45.90;;;;;;10322983;28;20145;-56
2024/03/19 15:19:44;;;;;;;5.68;2.60;;;22.80;46.30;;;;;;10325013;28;20055;-55
2024/03/19 15:24:46;;;;;;;6.43;2.00;;;22.70;46.20;;;;;;10322445;28;20512;-58
2024/03/19 15:29:49;;;;;;;7.28;1.92;;;22.90;46.10;;;;;;10318547;28;20050;-57
2024/03/19 15:34:50;;;;;;;8.32;1.88;;;22.60;46.30;;;;;;10317936;28;20077;-58
2024/03/19 15:39:53;;;;;;;4.97;1.85;;;22.80;46.30;;;;;;10318980;28;20609;-58
2024/03/19 15:44:56;;;;;;;7.55;1.70;;;22.80;46.30;;;;;;10316396;28;20055;-60
2024/03/19 15:49:58;;;;;;;6.65;1.73;;;23.10;45.50;;;;;;10319598;28;20460;-54
2024/03/19 15:55:00;;;;;;;7.25;1.80;;;23.10;45.40;;;;;;10320416;28;20058;-57
2024/03/19 16:00:09;;;;;;;8.73;1.58;;;23.30;45.30;;;;;;10311589;28;20093;-54
2024/03/19 16:05:11;;;;;;;4.25;1.60;;;23.30;45.00;;;;;;10319122;28;20077;-56
2024/03/19 16:10:13;;;;;;;5.18;1.50;;;23.30;45.10;;;;;;10319175;28;20043;-57
2024/03/19 16:15:15;;;;;;;8.23;2.40;;;23.40;45.00;;;;;;10320473;28;20046;-54
2024/03/19 16:20:17;;;;;;;9.05;1.55;;;23.30;45.30;;;;;;10335612;28;20052;-55
2024/03/19 16:25:20;;;;;;;4.93;1.52;;;23.50;45.40;;;;;;10364972;28;20512;-58
2024/03/19 16:30:25;;;;;;;5.43;1.48;;;23.40;45.70;;;;;;10363560;28;20048;-54
2024/03/19 16:35:27;;;;;;;9.68;1.70;;;23.50;45.90;;;;;;10350056;28;20125;-54
2024/03/19 16:40:30;;;;;;;6.57;1.50;;;23.60;46.40;;;;;;10319213;28;20050;-57
2024/03/19 16:45:33;;;;;;;4.55;1.30;;;23.50;46.70;;;;;;10318519;28;20421;-56
2024/03/19 16:50:35;;;;;;;2.22;1.55;;;23.40;46.50;;;;;;10312894;28;20054;-56
2024/03/19 16:55:37;;;;;;;4.50;1.65;;;23.30;46.60;;;;;;10312220;28;20046;-52
2024/03/19 17:00:40;;;;;;;5.22;1.40;;;23.40;46.80;;;;;;10320302;28;20046;-56
2024/03/19 17:05:42;;;;;;;3.15;1.88;;;23.50;46.70;;;;;;10322936;28;20050;-57
2024/03/19 17:10:44;;;;;;;9.40;2.47;;;23.20;45.60;;;;;;10314152;28;20042;-55
2024/03/19 17:15:49;;;;;;;14.02;4.65;;;23.20;46.60;;;;;;10318682;28;20540;-58
2024/03/19 17:20:51;;;;;;;15.27;6.22;;;23.20;47.50;;;;;;10320312;28;20110;-58
2024/03/19 17:25:55;;;;;;;14.88;6.20;;;23.00;48.90;;;;;;10324285;28;20487;-53
2024/03/19 17:30:59;;;;;;;16.58;6.80;;;23.30;48.70;;;;;;10334160;28;20057;-56
2024/03/19 17:36:00;;;;;;;17.85;8.23;;;23.40;49.00;;;;;;10363986;28;20129;-59
2024/03/19 17:41:02;;;;;;;19.38;8.65;;;23.40;48.80;;;;;;10363096;28;20124;-57
2024/03/19 17:46:05;;;;;;;30.38;12.30;;;23.30;48.70;;;;;;10375257;28;20140;-55
2024/03/19 17:51:06;;;;;;;25.77;14.27;;;23.30;48.80;;;;;;10375833;28;20140;-57
2024/03/19 17:56:10;;;;;;;22.85;14.10;;;23.40;48.60;;;;;;10360087;28;20136;-58
2024/03/19 18:01:12;;;;;;;23.60;14.50;;;23.30;48.50;;;;;;10366915;28;20050;-56
2024/03/19 18:06:14;;;;;;;26.33;14.30;;;23.30;49.10;;;;;;10375512;28;20053;-54
2024/03/19 18:11:16;;;;;;;22.90;14.18;;;23.50;49.20;;;;;;10369067;28;20559;-53
2024/03/19 18:16:19;;;;;;;21.75;13.32;;;23.40;49.70;;;;;;10367398;28;20397;-57
2024/03/19 18:21:20;;;;;;;23.70;12.75;;;23.40;49.70;;;;;;10361184;28;20046;-61
2024/03/19 18:26:22;;;;;;;25.27;12.93;;;23.60;50.30;;;;;;10351027;28;20141;-61
2024/03/19 18:31:25;;;;;;;19.73;12.20;;;23.60;51.00;;;;;;10332446;28;20074;-62
2024/03/19 18:36:26;;;;;;;21.17;12.07;;;23.70;51.00;;;;;;10328347;28;20046;-62
2024/03/19 18:41:30;;;;;;;19.08;11.00;;;23.70;51.10;;;;;;10327793;28;20052;-63
2024/03/19 18:46:33;;;;;;;20.08;11.40;;;23.80;51.00;;;;;;10356886;28;20056;-62
2024/03/19 18:51:34;;;;;;;18.85;10.77;;;23.90;51.10;;;;;;10371562;28;20611;-62
2024/03/19 18:56:37;;;;;;;23.17;10.40;;;24.00;50.90;;;;;;10373530;28;20518;-63
2024/03/19 19:01:40;;;;;;;17.67;9.77;;;24.00;51.40;;;;;;10341611;28;20057;-62
2024/03/19 19:06:42;;;;;;;13.75;8.80;;;24.00;52.00;;;;;;10330101;28;20054;-62
2024/03/19 19:11:44;;;;;;;18.63;8.40;;;24.20;51.50;;;;;;10330344;28;20062;-63
2024/03/19 19:16:47;;;;;;;14.43;7.78;;;24.10;51.20;;;;;;10327701;28;20093;-62
2024/03/19 19:21:49;;;;;;;15.73;7.18;;;23.90;51.10;;;;;;10323414;28;20046;-63
2024/03/19 19:26:51;;;;;;;14.52;6.70;;;24.00;50.30;;;;;;10323424;28;20042;-61
2024/03/19 19:31:54;;;;;;;21.85;6.75;;;24.10;50.00;;;;;;10330774;28;20042;-63
2024/03/19 19:36:56;;;;;;;14.18;6.53;;;24.10;49.70;;;;;;10319520;28;20108;-63
2024/03/19 19:41:58;;;;;;;13.63;5.85;;;24.00;49.70;;;;;;10326244;28;20046;-61
2024/03/19 19:47:00;;;;;;;17.05;5.45;;;23.70;49.90;;;;;;10334043;28;20129;-62
2024/03/19 19:52:03;;;;;;;10.93;5.60;;;23.70;49.80;;;;;;10324187;28;20070;-63
2024/03/19 19:57:05;;;;;;;9.88;5.38;;;23.30;50.30;;;;;;10327495;28;20092;-62
2024/03/19 20:02:09;;;;;;;10.25;5.18;;;23.20;50.40;;;;;;10320831;28;20043;-63
2024/03/19 20:07:12;;;;;;;7.80;4.97;;;23.20;50.50;;;;;;10327528;28;20459;-62
2024/03/19 20:12:13;;;;;;;7.43;4.50;;;23.00;50.70;;;;;;10330163;28;20058;-63
2024/03/19 20:17:16;;;;;;;9.02;5.03;;;22.90;50.60;;;;;;10329719;28;20041;-63
2024/03/19 20:22:18;;;;;;;8.13;4.70;;;22.90;50.80;;;;;;10326263;28;20049;-63
2024/03/19 20:27:19;;;;;;;10.52;5.03;;;22.90;50.70;;;;;;10325350;28;20049;-63
2024/03/19 20:32:22;;;;;;;8.43;4.70;;;22.80;50.50;;;;;;10332715;28;20121;-63
2024/03/19 20:37:24;;;;;;;7.63;4.75;;;22.80;50.60;;;;;;10329323;28;20508;-63
2024/03/19 20:42:25;;;;;;;9.93;4.25;;;22.90;50.30;;;;;;10322138;28;20480;-63
2024/03/19 20:47:28;;;;;;;8.05;4.68;;;22.80;50.10;;;;;;10328889;28;20134;-63
2024/03/19 20:52:30;;;;;;;10.15;4.20;;;22.60;50.40;;;;;;10332741;28;20130;-63
2024/03/19 20:57:32;;;;;;;6.85;4.38;;;22.50;50.70;;;;;;10323642;28;20122;-62
2024/03/19 21:02:34;;;;;;;4.80;4.00;;;22.50;50.80;;;;;;10330572;28;20563;-63
2024/03/19 21:07:36;;;;;;;7.65;4.40;;;22.30;51.40;;;;;;10328099;28;20149;-63
2024/03/19 21:12:40;;;;;;;5.93;4.10;;;22.40;51.00;;;;;;10328809;28;20133;-62
2024/03/19 21:17:43;;;;;;;6.13;3.88;;;22.10;51.70;;;;;;10329804;28;20042;-63
2024/03/19 21:22:44;;;;;;;6.07;3.80;;;22.00;51.70;;;;;;10328080;28;20576;-63
2024/03/19 21:27:46;;;;;;;8.55;4.47;;;21.90;52.00;;;;;;10320285;28;20053;-63
2024/03/19 21:32:49;;;;;;;4.97;3.22;;;21.90;51.90;;;;;;10325762;28;20076;-63
2024/03/19 21:37:50;;;;;;;5.60;3.88;;;21.90;51.60;;;;;;10333403;28;20084;-63
2024/03/19 21:42:52;;;;;;;5.22;3.70;;;22.00;51.50;;;;;;10334480;28;20129;-62
2024/03/19 21:47:55;;;;;;;4.53;3.53;;;21.90;51.70;;;;;;10337143;28;20073;-62
2024/03/19 21:52:57;;;;;;;4.90;3.20;;;21.90;51.40;;;;;;10327390;28;20496;-61
2024/03/19 21:57:58;;;;;;;5.95;3.42;;;21.90;51.20;;;;;;10331130;28;20142;-62
2024/03/19 22:03:01;;;;;;;5.40;3.75;;;22.00;51.10;;;;;;10325455;28;20149;-61
2024/03/19 22:08:03;;;;;;;5.13;3.40;;;22.00;50.90;;;;;;10324072;28;20121;-62
2024/03/19 22:13:05;;;;;;;4.95;3.03;;;22.00;50.60;;;;;;10327261;28;20142;-62
2024/03/19 22:18:08;;;;;;;5.65;3.20;;;22.00;50.40;;;;;;10328899;28;20042;-62
2024/03/19 22:23:09;;;;;;;5.10;3.40;;;22.20;49.70;;;;;;10338756;28;20055;-62
2024/03/19 22:28:11;;;;;;;4.32;3.13;;;22.70;48.80;;;;;;10333821;28;20085;-62
2024/03/19 22:33:15;;;;;;;3.97;2.92;;;22.80;48.40;;;;;;10340314;28;20452;-63
2024/03/19 22:38:16;;;;;;;5.00;3.38;;;22.80;48.10;;;;;;10334462;28;20054;-62
2024/03/19 22:43:18;;;;;;;6.10;3.15;;;22.80;47.90;;;;;;10335666;28;20137;-62
2024/03/19 22:48:21;;;;;;;4.68;3.47;;;22.70;48.10;;;;;;10332164;28;20838;-62
2024/03/19 22:53:22;;;;;;;5.05;2.80;;;22.70;48.00;;;;;;10336538;28;20134;-62
2024/03/19 22:58:24;;;;;;;4.25;2.92;;;22.50;48.40;;;;;;10335022;28;20082;-63
2024/03/19 23:03:27;;;;;;;3.55;2.80;;;22.60;48.20;;;;;;10329676;28;20145;-62
2024/03/19 23:08:29;;;;;;;4.65;3.03;;;22.40;48.60;;;;;;10334029;28;20524;-62
2024/03/19 23:13:30;;;;;;;4.13;3.25;;;22.20;48.80;;;;;;10334448;28;20141;-62
2024/03/19 23:18:33;;;;;;;4.47;3.13;;;22.40;48.50;;;;;;10337877;28;20120;-62
2024/03/19 23:23:35;;;;;;;4.30;2.97;;;22.20;48.80;;;;;;10334049;28;20056;-62
2024/03/19 23:28:36;;;;;;;5.47;2.92;;;22.20;48.90;;;;;;10324959;28;20042;-61
2024/03/19 23:33:39;;;;;;;3.45;2.90;;;22.20;48.80;;;;;;10334067;28;20125;-63
2024/03/19 23:38:41;;;;;;;3.95;2.92;;;22.30;48.60;;;;;;10336874;28;20069;-62
2024/03/19 23:43:43;;;;;;;3.38;2.45;;;22.10;48.80;;;;;;10323360;28;20129;-63
2024/03/19 23:48:45;;;;;;;3.85;3.05;;;22.20;48.60;;;;;;10330499;28;20097;-62
2024/03/19 23:53:47;;;;;;;3.15;2.58;;;22.10;48.90;;;;;;10324459;28;20047;-64
2024/03/19 23:58:49;;;;;;;3.05;2.50;;;22.00;49.00;;;;;;10329728;28;20133;-62
